CXA1012 ZSPD-ZBAA
Flight info
| Callsign | CXA1012 |
|---|---|
| Flight time | N/A |
| Altitude | 36100 |
| Route | PIK95D PIKAS G330 PIMOL A593 DALIM W157 AVBOX AVBOX6J |
| Aircraft | A35K/H-SDE2E3GHIJ3J4J5LM1ORWXY/LB1D1 |
Departure
| Time | 2026-05-08 04:15 |
|---|---|
| Airport | Shanghai Pudong International Airport (ZSPD) |
Arrival
| Time | N/A |
|---|---|
| Airport | Beijing Capital International Airport (ZBAA) |
| Time | Latitude | Longitude | Altitude | Speed | Heading |
|---|---|---|---|---|---|
| 2026-05-08 04:01 | 31.13103 | 121.80183 | 27 ft | 0 kts | 256° |
| 2026-05-08 04:12 | 31.13101 | 121.80177 | 29 ft | 3 kts | 256° |
| 2026-05-08 04:12 | 31.13092 | 121.80141 | 29 ft | 6 kts | 250° |
| 2026-05-08 04:12 | 31.13056 | 121.80101 | 28 ft | 8 kts | 198° |
| 2026-05-08 04:12 | 31.12993 | 121.80110 | 28 ft | 11 kts | 163° |
| 2026-05-08 04:13 | 31.12919 | 121.80136 | 29 ft | 12 kts | 162° |
| 2026-05-08 04:13 | 31.12835 | 121.80169 | 29 ft | 13 kts | 162° |
| 2026-05-08 04:13 | 31.12775 | 121.80136 | 29 ft | 8 kts | 250° |
| 2026-05-08 04:13 | 31.12756 | 121.80061 | 29 ft | 11 kts | 254° |
| 2026-05-08 04:14 | 31.12731 | 121.79965 | 29 ft | 14 kts | 253° |
| 2026-05-08 04:14 | 31.12745 | 121.79876 | 29 ft | 11 kts | 323° |
| 2026-05-08 04:14 | 31.12825 | 121.79844 | 28 ft | 16 kts | 341° |
| 2026-05-08 04:14 | 31.13144 | 121.79724 | 28 ft | 83 kts | 342° |
| 2026-05-08 04:15 | 31.13919 | 121.79434 | 28 ft | 149 kts | 342° |
| 2026-05-08 04:15 | 31.15025 | 121.78997 | 434 ft | 170 kts | 343° |
| 2026-05-08 04:15 | 31.16098 | 121.78522 | 1368 ft | 172 kts | 342° |
| 2026-05-08 04:15 | 31.17303 | 121.77958 | 1838 ft | 199 kts | 340° |
| 2026-05-08 04:16 | 31.18694 | 121.77417 | 2267 ft | 223 kts | 345° |
| 2026-05-08 04:16 | 31.20245 | 121.76866 | 2818 ft | 240 kts | 345° |
| 2026-05-08 04:16 | 31.21865 | 121.76250 | 3459 ft | 249 kts | 344° |
| 2026-05-08 04:16 | 31.23528 | 121.75590 | 4160 ft | 254 kts | 344° |
| 2026-05-08 04:17 | 31.25213 | 121.74907 | 5101 ft | 259 kts | 345° |
| 2026-05-08 04:17 | 31.26918 | 121.74226 | 5907 ft | 259 kts | 342° |
| 2026-05-08 04:17 | 31.28052 | 121.73766 | 6375 ft | 261 kts | 342° |
| 2026-05-08 04:17 | 31.29774 | 121.73065 | 7041 ft | 264 kts | 341° |
| 2026-05-08 04:18 | 31.32109 | 121.72112 | 7901 ft | 268 kts | 341° |
| 2026-05-08 04:18 | 31.33878 | 121.71391 | 8566 ft | 271 kts | 341° |
| 2026-05-08 04:18 | 31.35064 | 121.70909 | 8994 ft | 273 kts | 340° |
| 2026-05-08 04:18 | 31.36881 | 121.70198 | 9658 ft | 276 kts | 341° |
| 2026-05-08 04:19 | 31.38721 | 121.69502 | 10314 ft | 280 kts | 341° |
| 2026-05-08 04:19 | 31.40623 | 121.68783 | 10652 ft | 295 kts | 341° |
| 2026-05-08 04:19 | 31.42626 | 121.68026 | 10993 ft | 310 kts | 340° |
| 2026-05-08 04:19 | 31.44724 | 121.67220 | 11258 ft | 324 kts | 340° |
| 2026-05-08 04:20 | 31.46915 | 121.66386 | 11519 ft | 338 kts | 341° |
| 2026-05-08 04:20 | 31.49196 | 121.65520 | 11766 ft | 351 kts | 341° |
| 2026-05-08 04:20 | 31.51550 | 121.64625 | 12098 ft | 359 kts | 340° |
| 2026-05-08 04:20 | 31.53900 | 121.63582 | 12541 ft | 363 kts | 333° |
| 2026-05-08 04:21 | 31.56028 | 121.61984 | 13076 ft | 364 kts | 319° |
| 2026-05-08 04:21 | 31.57877 | 121.59946 | 13616 ft | 365 kts | 314° |
| 2026-05-08 04:21 | 31.59645 | 121.57836 | 14126 ft | 368 kts | 313° |
| 2026-05-08 04:21 | 31.61448 | 121.55681 | 14568 ft | 370 kts | 313° |
| 2026-05-08 04:22 | 31.63258 | 121.53523 | 15032 ft | 372 kts | 313° |
| 2026-05-08 04:22 | 31.65084 | 121.51354 | 15518 ft | 374 kts | 313° |
| 2026-05-08 04:22 | 31.66919 | 121.49176 | 15980 ft | 376 kts | 313° |
| 2026-05-08 04:22 | 31.68768 | 121.46987 | 16460 ft | 378 kts | 313° |
| 2026-05-08 04:23 | 31.70623 | 121.44785 | 16930 ft | 380 kts | 313° |
| 2026-05-08 04:23 | 31.72488 | 121.42567 | 17403 ft | 382 kts | 313° |
| 2026-05-08 04:23 | 31.74364 | 121.40338 | 17877 ft | 384 kts | 313° |
| 2026-05-08 04:23 | 31.76258 | 121.38087 | 18333 ft | 387 kts | 313° |
| 2026-05-08 04:24 | 31.78135 | 121.35853 | 18745 ft | 389 kts | 312° |
| 2026-05-08 04:24 | 31.80038 | 121.33587 | 19133 ft | 390 kts | 312° |
| 2026-05-08 04:24 | 31.81952 | 121.31308 | 19497 ft | 393 kts | 312° |
| 2026-05-08 04:24 | 31.83875 | 121.29017 | 19872 ft | 394 kts | 312° |
| 2026-05-08 04:25 | 31.85806 | 121.26715 | 20251 ft | 396 kts | 311° |
| 2026-05-08 04:25 | 31.87745 | 121.24402 | 20607 ft | 398 kts | 311° |
| 2026-05-08 04:25 | 31.89694 | 121.22074 | 20959 ft | 400 kts | 311° |
| 2026-05-08 04:25 | 31.91651 | 121.19735 | 21316 ft | 402 kts | 311° |
| 2026-05-08 04:26 | 31.93619 | 121.17384 | 21670 ft | 404 kts | 311° |
| 2026-05-08 04:26 | 31.95594 | 121.15022 | 22016 ft | 405 kts | 311° |
| 2026-05-08 04:26 | 31.97573 | 121.12652 | 22353 ft | 407 kts | 310° |
| 2026-05-08 04:26 | 31.99566 | 121.10265 | 22687 ft | 409 kts | 310° |
| 2026-05-08 04:27 | 32.01562 | 121.07872 | 23028 ft | 411 kts | 310° |
| 2026-05-08 04:27 | 32.03568 | 121.05465 | 23358 ft | 412 kts | 310° |
| 2026-05-08 04:27 | 32.05580 | 121.03050 | 23683 ft | 414 kts | 310° |
| 2026-05-08 04:27 | 32.07587 | 121.00609 | 23962 ft | 415 kts | 308° |
| 2026-05-08 04:28 | 32.09355 | 120.97943 | 24225 ft | 411 kts | 299° |
| 2026-05-08 04:28 | 32.10642 | 120.94953 | 24505 ft | 408 kts | 289° |
| 2026-05-08 04:28 | 32.11584 | 120.91794 | 24756 ft | 409 kts | 286° |
| 2026-05-08 04:28 | 32.12462 | 120.88603 | 25014 ft | 410 kts | 285° |
| 2026-05-08 04:29 | 32.13343 | 120.85392 | 25280 ft | 411 kts | 286° |
| 2026-05-08 04:29 | 32.14217 | 120.82219 | 25559 ft | 412 kts | 286° |
| 2026-05-08 04:29 | 32.15111 | 120.78983 | 25822 ft | 414 kts | 286° |
| 2026-05-08 04:29 | 32.15998 | 120.75746 | 26085 ft | 415 kts | 285° |
| 2026-05-08 04:30 | 32.16683 | 120.72432 | 26351 ft | 415 kts | 278° |
| 2026-05-08 04:30 | 32.17096 | 120.69053 | 26628 ft | 416 kts | 276° |
| 2026-05-08 04:30 | 32.17414 | 120.65651 | 26900 ft | 418 kts | 275° |
| 2026-05-08 04:30 | 32.17687 | 120.62234 | 27171 ft | 419 kts | 274° |
| 2026-05-08 04:31 | 32.17947 | 120.58797 | 27452 ft | 421 kts | 274° |
| 2026-05-08 04:31 | 32.18209 | 120.55342 | 27720 ft | 423 kts | 274° |
| 2026-05-08 04:31 | 32.18479 | 120.51884 | 27997 ft | 425 kts | 274° |
| 2026-05-08 04:31 | 32.18754 | 120.48445 | 28279 ft | 426 kts | 275° |
| 2026-05-08 04:32 | 32.19038 | 120.44955 | 28568 ft | 428 kts | 275° |
| 2026-05-08 04:32 | 32.19327 | 120.41445 | 28861 ft | 430 kts | 275° |
| 2026-05-08 04:32 | 32.19616 | 120.37928 | 29126 ft | 432 kts | 275° |
| 2026-05-08 04:32 | 32.19907 | 120.34388 | 29417 ft | 434 kts | 275° |
| 2026-05-08 04:33 | 32.20197 | 120.30837 | 29728 ft | 436 kts | 275° |
| 2026-05-08 04:33 | 32.20489 | 120.27255 | 30017 ft | 438 kts | 275° |
| 2026-05-08 04:33 | 32.20783 | 120.23668 | 30283 ft | 440 kts | 275° |
| 2026-05-08 04:33 | 32.21077 | 120.20070 | 30531 ft | 442 kts | 275° |
| 2026-05-08 04:34 | 32.21374 | 120.16445 | 30801 ft | 443 kts | 275° |
| 2026-05-08 04:34 | 32.21670 | 120.12814 | 31079 ft | 445 kts | 275° |
| 2026-05-08 04:34 | 32.21965 | 120.09174 | 31342 ft | 446 kts | 275° |
| 2026-05-08 04:34 | 32.22256 | 120.05562 | 31596 ft | 448 kts | 275° |
| 2026-05-08 04:35 | 32.22551 | 120.01897 | 31861 ft | 449 kts | 275° |
| 2026-05-08 04:35 | 32.22846 | 119.98219 | 32126 ft | 450 kts | 275° |
| 2026-05-08 04:35 | 32.23139 | 119.94538 | 32419 ft | 450 kts | 275° |
| 2026-05-08 04:35 | 32.23431 | 119.90866 | 32832 ft | 448 kts | 275° |
| 2026-05-08 04:36 | 32.23766 | 119.87212 | 33271 ft | 446 kts | 277° |
| 2026-05-08 04:36 | 32.24391 | 119.83638 | 33709 ft | 444 kts | 283° |
| 2026-05-08 04:36 | 32.25390 | 119.80185 | 34162 ft | 444 kts | 290° |
| 2026-05-08 04:36 | 32.26777 | 119.76922 | 34562 ft | 446 kts | 297° |
| 2026-05-08 04:37 | 32.28552 | 119.73906 | 34974 ft | 447 kts | 304° |
| 2026-05-08 04:37 | 32.30677 | 119.71215 | 35407 ft | 449 kts | 312° |
| 2026-05-08 04:37 | 32.33097 | 119.68860 | 35824 ft | 451 kts | 316° |
| 2026-05-08 04:37 | 32.35610 | 119.66646 | 36181 ft | 451 kts | 317° |
| 2026-05-08 04:38 | 32.38162 | 119.64475 | 36315 ft | 452 kts | 318° |
| 2026-05-08 04:38 | 32.40734 | 119.62317 | 36321 ft | 452 kts | 318° |
| 2026-05-08 04:38 | 32.46319 | 119.58720 | 36322 ft | 466 kts | 332° |
| 2026-05-08 04:39 | 32.52520 | 119.56419 | 36324 ft | 472 kts | 336° |
| 2026-05-08 04:39 | 32.58839 | 119.54262 | 36327 ft | 476 kts | 336° |
| 2026-05-08 04:40 | 32.65277 | 119.52059 | 36319 ft | 484 kts | 336° |
| 2026-05-08 04:40 | 32.71765 | 119.49841 | 36326 ft | 486 kts | 336° |
| 2026-05-08 04:41 | 32.78268 | 119.47613 | 36328 ft | 486 kts | 336° |
| 2026-05-08 04:41 | 32.84784 | 119.45376 | 36324 ft | 487 kts | 336° |
| 2026-05-08 04:42 | 32.91254 | 119.43152 | 36327 ft | 488 kts | 336° |
| 2026-05-08 04:42 | 32.97774 | 119.40906 | 36324 ft | 488 kts | 336° |
| 2026-05-08 04:43 | 33.04295 | 119.38657 | 36327 ft | 488 kts | 336° |
| 2026-05-08 04:43 | 33.10817 | 119.36404 | 36328 ft | 488 kts | 336° |
| 2026-05-08 04:44 | 33.17331 | 119.34150 | 36327 ft | 487 kts | 336° |
| 2026-05-08 04:44 | 33.23845 | 119.31892 | 36327 ft | 487 kts | 336° |
| 2026-05-08 04:45 | 33.30345 | 119.29636 | 36324 ft | 486 kts | 336° |
| 2026-05-08 04:45 | 33.36848 | 119.27375 | 36326 ft | 486 kts | 336° |
| 2026-05-08 04:46 | 33.43292 | 119.25132 | 36326 ft | 485 kts | 336° |
| 2026-05-08 04:46 | 33.49770 | 119.22872 | 36324 ft | 485 kts | 336° |
| 2026-05-08 04:47 | 33.56243 | 119.20611 | 36324 ft | 484 kts | 336° |
| 2026-05-08 04:47 | 33.62731 | 119.18342 | 36327 ft | 484 kts | 336° |
| 2026-05-08 04:48 | 33.69197 | 119.16076 | 36328 ft | 484 kts | 336° |
| 2026-05-08 04:48 | 33.75667 | 119.13805 | 36324 ft | 484 kts | 336° |
| 2026-05-08 04:49 | 33.82091 | 119.11547 | 36325 ft | 484 kts | 336° |
| 2026-05-08 04:49 | 33.88555 | 119.09272 | 36325 ft | 484 kts | 336° |
| 2026-05-08 04:50 | 33.95012 | 119.06995 | 36325 ft | 483 kts | 335° |
| 2026-05-08 04:50 | 34.01468 | 119.04715 | 36324 ft | 483 kts | 335° |
| 2026-05-08 04:51 | 34.07915 | 119.02436 | 36327 ft | 482 kts | 335° |
| 2026-05-08 04:51 | 34.14348 | 119.00157 | 36329 ft | 481 kts | 335° |
| 2026-05-08 04:52 | 34.20769 | 118.97878 | 36329 ft | 480 kts | 335° |
| 2026-05-08 04:52 | 34.27174 | 118.95602 | 36317 ft | 479 kts | 335° |
| 2026-05-08 04:53 | 34.33570 | 118.93326 | 36321 ft | 478 kts | 335° |
| 2026-05-08 04:53 | 34.39959 | 118.91048 | 36321 ft | 478 kts | 335° |
| 2026-05-08 04:54 | 34.46331 | 118.88773 | 36321 ft | 477 kts | 335° |
| 2026-05-08 04:54 | 34.52703 | 118.86493 | 36318 ft | 477 kts | 335° |